createdAt,value
2018-11-13T00:01:35.970Z,28.45
2018-11-13T00:04:14.043Z,29.67
2018-11-13T00:06:50.004Z,35.30
2018-11-13T00:09:17.693Z,30.62
2018-11-13T00:11:45.382Z,29.92
2018-11-13T00:14:13.091Z,27.10
2018-11-13T00:16:40.472Z,26.50
2018-11-13T00:19:08.335Z,26.77
2018-11-13T00:21:35.729Z,27.32
2018-11-13T00:24:03.276Z,28.75
2018-11-13T00:26:30.997Z,28.10
2018-11-13T00:28:58.433Z,26.62
2018-11-13T00:31:26.458Z,25.90
2018-11-13T00:33:53.849Z,26.40
2018-11-13T00:36:21.301Z,27.32
2018-11-13T00:38:49.009Z,25.48
2018-11-13T00:41:16.669Z,25.85
2018-11-13T00:43:44.392Z,24.55
2018-11-13T00:46:12.272Z,25.80
2018-11-13T00:48:39.984Z,24.57
2018-11-13T00:51:07.419Z,24.87
2018-11-13T00:53:34.770Z,23.07
2018-11-13T00:56:02.133Z,22.60
2018-11-13T00:58:29.521Z,21.70
2018-11-13T01:00:56.975Z,23.32
2018-11-13T01:03:24.345Z,20.70
2018-11-13T01:05:52.809Z,19.40
2018-11-13T01:08:19.720Z,18.20
2018-11-13T01:10:47.419Z,19.97
2018-11-13T01:13:14.817Z,16.75
2018-11-13T01:15:43.241Z,15.95
2018-11-13T01:18:11.021Z,16.20
2018-11-13T01:20:38.794Z,16.03
2018-11-13T01:23:06.140Z,14.73
2018-11-13T01:25:33.805Z,12.95
2018-11-13T01:28:01.149Z,12.13
2018-11-13T01:30:28.520Z,12.82
2018-11-13T01:32:56.795Z,14.03
2018-11-13T01:35:24.450Z,12.95
2018-11-13T01:37:52.053Z,13.43
2018-11-13T01:40:20.813Z,12.07
2018-11-13T01:42:48.173Z,13.20
2018-11-13T01:45:16.954Z,12.35
2018-11-13T01:47:44.608Z,13.08
2018-11-13T01:50:12.456Z,12.07
2018-11-13T01:52:40.200Z,12.90
2018-11-13T01:55:08.650Z,13.60
2018-11-13T01:57:36.194Z,13.88
2018-11-13T02:00:03.901Z,13.68
2018-11-13T02:02:31.383Z,15.10
2018-11-13T02:04:59.065Z,13.55
2018-11-13T02:07:26.688Z,14.35
2018-11-13T02:09:54.025Z,15.90
2018-11-13T02:12:21.815Z,14.83
2018-11-13T02:14:49.256Z,17.92
2018-11-13T02:17:17.137Z,17.15
2018-11-13T02:19:44.809Z,19.70
2018-11-13T02:22:12.494Z,18.52
2018-11-13T02:24:39.848Z,17.55
2018-11-13T02:27:07.290Z,17.52
2018-11-13T02:29:34.874Z,19.32
2018-11-13T02:32:02.561Z,22.22
2018-11-13T02:34:30.271Z,19.37
2018-11-13T02:36:58.059Z,20.97
2018-11-13T02:39:25.734Z,22.55
2018-11-13T02:41:53.613Z,22.02
2018-11-13T02:44:21.038Z,20.97
2018-11-13T02:46:48.393Z,22.50
2018-11-13T02:49:16.447Z,20.70
2018-11-13T02:51:44.147Z,22.85
2018-11-13T02:54:11.884Z,21.52
2018-11-13T02:56:39.529Z,21.93
2018-11-13T02:59:14.093Z,21.70
2018-11-13T03:01:41.539Z,23.00
2018-11-13T03:04:09.274Z,23.30
2018-11-13T03:06:37.276Z,23.55
2018-11-13T03:09:06.634Z,25.15
2018-11-13T03:11:34.010Z,23.22
2018-11-13T03:14:01.697Z,22.03
2018-11-13T03:16:29.687Z,21.87
2018-11-13T03:18:57.074Z,24.00
2018-11-13T03:21:24.492Z,27.82
2018-11-13T03:23:52.134Z,27.27
2018-11-13T03:26:19.549Z,28.23
2018-11-13T03:28:47.241Z,28.57
2018-11-13T03:31:14.656Z,29.12
2018-11-13T03:33:42.361Z,27.98
2018-11-13T03:36:09.762Z,27.17
2018-11-13T03:38:37.125Z,23.18
2018-11-13T03:41:04.520Z,24.37
2018-11-13T03:43:31.824Z,25.08
2018-11-13T03:46:00.069Z,22.30
2018-11-13T03:48:27.937Z,28.27
2018-11-13T03:50:55.369Z,27.27
2018-11-13T03:53:23.101Z,21.97
2018-11-13T03:55:51.096Z,26.02
2018-11-13T03:58:18.798Z,31.40
2018-11-13T04:00:46.516Z,32.90
2018-11-13T04:03:14.138Z,28.02
2018-11-13T04:05:41.764Z,31.48
2018-11-13T04:08:09.121Z,32.15
2018-11-13T04:13:05.305Z,36.37
2018-11-13T04:15:33.089Z,31.50
2018-11-13T04:18:00.485Z,33.20
2018-11-13T04:20:27.913Z,30.20
2018-11-13T04:22:55.328Z,33.90
2018-11-13T04:25:22.989Z,31.57
2018-11-13T04:27:50.661Z,32.65
2018-11-13T04:30:18.832Z,34.98
2018-11-13T04:32:46.309Z,34.48
2018-11-13T04:35:14.923Z,35.07
2018-11-13T04:37:42.617Z,35.85
2018-11-13T04:40:15.818Z,36.40
2018-11-13T04:42:45.030Z,37.35
2018-11-13T04:45:14.022Z,36.25
2018-11-13T04:47:41.996Z,38.23
2018-11-13T04:50:10.622Z,36.40
2018-11-13T04:52:38.281Z,36.73
2018-11-13T04:55:06.650Z,34.23
2018-11-13T04:57:34.777Z,37.88
2018-11-13T05:00:02.235Z,36.93
2018-11-13T05:02:29.614Z,37.78
2018-11-13T05:04:57.285Z,36.93
2018-11-13T05:07:24.594Z,35.75
2018-11-13T05:09:52.337Z,36.73
2018-11-13T05:12:20.217Z,37.80
2018-11-13T05:14:48.022Z,35.28
2018-11-13T05:17:15.424Z,37.38
2018-11-13T05:19:42.761Z,39.13
2018-11-13T05:22:10.702Z,35.43
2018-11-13T05:24:38.794Z,39.78
2018-11-13T05:27:06.426Z,38.35
2018-11-13T05:29:34.507Z,39.10
2018-11-13T05:32:02.652Z,36.98
2018-11-13T05:34:30.416Z,38.88
2018-11-13T05:36:58.006Z,35.78
2018-11-13T05:39:25.928Z,38.38
2018-11-13T05:41:53.381Z,37.50
2018-11-13T05:44:20.700Z,39.33
2018-11-13T05:46:48.114Z,39.40
2018-11-13T05:49:15.428Z,40.30
2018-11-13T05:51:43.336Z,38.65
2018-11-13T05:54:11.228Z,42.13
2018-11-13T05:56:38.894Z,41.50
2018-11-13T05:59:06.220Z,41.13
2018-11-13T06:01:33.580Z,42.30
2018-11-13T06:04:01.232Z,44.83
2018-11-13T06:06:28.625Z,46.20
2018-11-13T06:08:56.705Z,44.38
2018-11-13T06:11:24.425Z,41.73
2018-11-13T06:13:51.831Z,45.83
2018-11-13T06:16:19.274Z,47.93
2018-11-13T06:18:46.663Z,46.92
2018-11-13T06:21:13.996Z,45.73
2018-11-13T06:23:41.378Z,45.78
2018-11-13T06:26:08.917Z,47.60
2018-11-13T06:28:36.274Z,48.60
2018-11-13T06:31:03.689Z,46.33
2018-11-13T06:33:31.343Z,46.35
2018-11-13T06:35:59.001Z,48.70
2018-11-13T06:38:26.367Z,49.67
2018-11-13T06:40:53.713Z,46.58
2018-11-13T06:43:21.376Z,49.00
2018-11-13T06:45:48.763Z,49.93
2018-11-13T06:48:16.157Z,49.67
2018-11-13T06:50:44.292Z,48.90
2018-11-13T06:53:11.929Z,50.90
2018-11-13T06:55:42.004Z,45.12
2018-11-13T06:58:09.370Z,48.42
2018-11-13T07:00:36.729Z,46.92
2018-11-13T07:03:04.104Z,49.42
2018-11-13T07:05:31.488Z,51.05
2018-11-13T07:07:59.785Z,50.70
2018-11-13T07:10:28.087Z,51.07
2018-11-13T07:12:56.416Z,50.00
2018-11-13T07:15:26.830Z,51.85
2018-11-13T07:17:55.825Z,50.80
2018-11-13T07:20:24.474Z,52.83
2018-11-13T07:22:52.206Z,51.28
2018-11-13T07:25:19.999Z,49.93
2018-11-13T07:27:47.393Z,53.85
2018-11-13T07:30:16.255Z,52.83
2018-11-13T07:32:43.753Z,54.50
2018-11-13T07:35:12.507Z,56.77
2018-11-13T07:37:42.285Z,53.90
2018-11-13T07:40:10.174Z,52.25
2018-11-13T07:42:37.580Z,55.17
2018-11-13T07:45:06.074Z,53.75
2018-11-13T07:47:34.004Z,53.55
2018-11-13T07:50:01.199Z,53.23
2018-11-13T07:52:29.169Z,55.78
2018-11-13T07:54:56.912Z,56.63
2018-11-13T07:57:24.555Z,52.23
2018-11-13T07:59:51.961Z,57.38
2018-11-13T08:02:19.618Z,54.15
2018-11-13T08:04:47.346Z,54.67
2018-11-13T08:07:15.151Z,52.67
2018-11-13T08:09:43.308Z,53.90
2018-11-13T08:12:10.982Z,53.33
2018-11-13T08:14:38.553Z,53.80
2018-11-13T08:17:06.718Z,57.78
2018-11-13T08:19:34.390Z,55.25
2018-11-13T08:22:02.142Z,53.75
2018-11-13T08:24:29.578Z,51.87
2018-11-13T08:26:57.308Z,55.63
2018-11-13T08:29:25.096Z,52.43
2018-11-13T08:31:53.102Z,50.55
2018-11-13T08:34:20.761Z,51.37
2018-11-13T08:36:48.722Z,48.17
2018-11-13T08:39:16.183Z,50.20
2018-11-13T08:41:43.578Z,45.60
2018-11-13T08:44:11.591Z,47.13
2018-11-13T08:46:38.914Z,48.30
2018-11-13T08:49:06.803Z,49.58
2018-11-13T08:51:34.275Z,48.15
2018-11-13T08:54:01.896Z,48.83
2018-11-13T08:56:29.825Z,45.25
2018-11-13T08:58:57.629Z,49.77
2018-11-13T09:01:26.477Z,49.23
2018-11-13T09:03:54.200Z,47.80
2018-11-13T09:06:21.922Z,50.15
2018-11-13T09:08:49.573Z,48.83
2018-11-13T09:11:17.640Z,50.05
2018-11-13T09:13:45.384Z,48.08
2018-11-13T09:16:12.768Z,47.67
2018-11-13T09:18:40.763Z,51.60
2018-11-13T09:21:08.507Z,51.37
2018-11-13T09:23:36.162Z,49.63
2018-11-13T09:26:03.568Z,53.25
2018-11-13T09:28:30.942Z,52.10
2018-11-13T09:30:58.786Z,56.95
2018-11-13T09:33:26.384Z,51.47
2018-11-13T09:35:53.803Z,48.45
2018-11-13T09:38:21.387Z,49.77
2018-11-13T09:40:49.006Z,50.85
2018-11-13T09:43:16.403Z,51.50
2018-11-13T09:45:44.409Z,51.42
2018-11-13T09:48:12.105Z,53.90
2018-11-13T09:50:39.521Z,48.70
2018-11-13T09:53:07.050Z,49.08
2018-11-13T09:55:34.701Z,51.73
2018-11-13T09:58:02.103Z,51.10
2018-11-13T10:00:29.636Z,53.68
2018-11-13T10:02:58.923Z,53.10
2018-11-13T10:05:25.798Z,54.77
2018-11-13T10:07:53.679Z,52.85
2018-11-13T10:10:21.423Z,54.90
2018-11-13T10:12:48.894Z,48.35
2018-11-13T10:15:22.850Z,49.50
2018-11-13T10:17:50.499Z,47.10
2018-11-13T10:20:18.025Z,45.03
2018-11-13T10:22:46.881Z,50.00
2018-11-13T10:25:14.896Z,51.70
2018-11-13T10:27:42.802Z,47.40
2018-11-13T10:30:12.262Z,46.15
2018-11-13T10:32:40.353Z,46.13
2018-11-13T10:35:08.803Z,47.48
2018-11-13T10:37:37.307Z,48.10
2018-11-13T10:40:05.267Z,47.70
2018-11-13T10:42:32.904Z,47.93
2018-11-13T10:45:00.581Z,47.80
2018-11-13T10:47:28.261Z,51.37
2018-11-13T10:49:55.958Z,44.45
2018-11-13T10:52:23.604Z,42.67
2018-11-13T10:54:51.283Z,41.45
2018-11-13T10:57:18.739Z,41.95
2018-11-13T10:59:46.326Z,40.00
2018-11-13T11:02:19.200Z,37.87
2018-11-13T11:04:49.834Z,37.60
2018-11-13T11:07:17.550Z,36.93
2018-11-13T11:09:45.518Z,39.63
2018-11-13T11:12:12.972Z,38.92
2018-11-13T11:14:40.289Z,34.85
2018-11-13T11:17:08.404Z,37.95
2018-11-13T11:19:35.914Z,32.28
2018-11-13T11:22:03.114Z,32.50
2018-11-13T11:24:30.542Z,31.77
2018-11-13T11:26:58.266Z,30.68
2018-11-13T11:29:25.825Z,30.88
2018-11-13T11:31:53.238Z,27.35
2018-11-13T11:34:20.640Z,28.65
2018-11-13T11:36:47.992Z,27.93
2018-11-13T11:39:17.333Z,28.23
2018-11-13T11:41:44.962Z,29.72
2018-11-13T11:44:13.090Z,28.70
2018-11-13T11:46:40.478Z,29.10
2018-11-13T11:49:08.213Z,25.40
2018-11-13T11:51:36.284Z,29.27
2018-11-13T11:54:05.286Z,30.15
2018-11-13T11:59:09.182Z,28.12
2018-11-13T12:01:36.572Z,28.73
2018-11-13T12:04:03.977Z,26.97
2018-11-13T12:06:31.718Z,25.57
2018-11-13T12:08:59.390Z,27.87
2018-11-13T12:11:27.124Z,24.43
2018-11-13T12:13:54.782Z,21.20
2018-11-13T12:16:22.625Z,23.73
2018-11-13T12:18:50.056Z,27.05
2018-11-13T12:21:17.559Z,29.18
2018-11-13T12:26:24.365Z,24.70
2018-11-13T12:28:51.785Z,20.05
2018-11-13T12:31:19.195Z,17.20
2018-11-13T12:33:47.538Z,18.37
2018-11-13T12:36:15.861Z,18.60
2018-11-13T12:38:43.549Z,19.02
2018-11-13T12:41:11.658Z,18.62
2018-11-13T12:43:39.271Z,16.07
2018-11-13T12:46:07.289Z,17.40
2018-11-13T12:48:35.080Z,18.25
2018-11-13T12:51:05.861Z,15.20
2018-11-13T12:53:34.092Z,17.80
2018-11-13T12:56:01.472Z,18.80
2018-11-13T12:58:30.121Z,15.93
2018-11-13T13:00:57.452Z,16.52
2018-11-13T13:03:25.093Z,13.65
2018-11-13T13:05:52.807Z,10.98
2018-11-13T13:08:20.120Z,14.13
2018-11-13T13:10:47.861Z,13.15
2018-11-13T13:13:15.571Z,14.35
2018-11-13T13:15:43.662Z,13.08
2018-11-13T13:18:10.998Z,11.50
2018-11-13T13:20:38.484Z,12.55
2018-11-13T13:23:06.229Z,11.57
2018-11-13T13:25:33.964Z,12.05
2018-11-13T13:28:01.651Z,12.88
2018-11-13T13:30:29.686Z,14.53
2018-11-13T13:32:57.377Z,12.33
2018-11-13T13:35:33.213Z,13.45
2018-11-13T13:38:00.903Z,10.43
2018-11-13T13:40:28.300Z,12.68
2018-11-13T13:42:55.993Z,11.05
2018-11-13T13:45:23.373Z,10.05
2018-11-13T13:47:51.023Z,9.28
2018-11-13T13:50:18.409Z,10.72
2018-11-13T13:52:45.774Z,8.13
2018-11-13T13:55:13.182Z,9.35
2018-11-13T13:57:40.617Z,11.28
2018-11-13T14:00:09.584Z,8.23
2018-11-13T14:02:36.900Z,8.68
2018-11-13T14:05:04.245Z,10.28
2018-11-13T14:07:31.671Z,8.85
2018-11-13T14:09:59.079Z,8.93
2018-11-13T14:12:26.744Z,9.25
2018-11-13T14:14:54.145Z,9.60
2018-11-13T14:17:21.472Z,10.43
2018-11-13T14:19:48.839Z,27.55
2018-11-13T14:22:16.469Z,36.15
2018-11-13T14:24:43.827Z,9.85
2018-11-13T14:27:11.236Z,12.15
2018-11-13T14:29:39.148Z,6.57
2018-11-13T14:32:06.698Z,6.30
2018-11-13T14:34:34.455Z,10.80
2018-11-13T14:37:01.829Z,9.57
2018-11-13T14:39:29.483Z,10.00
2018-11-13T14:41:56.959Z,9.00
2018-11-13T14:44:24.604Z,6.95
2018-11-13T14:46:52.347Z,12.73
2018-11-13T14:49:19.749Z,8.38
2018-11-13T14:51:47.798Z,10.45
2018-11-13T14:54:15.455Z,11.30
2018-11-13T14:56:43.205Z,8.45
2018-11-13T14:59:10.968Z,5.97
2018-11-13T15:01:38.653Z,8.80
2018-11-13T15:04:06.213Z,9.40
2018-11-13T15:06:33.565Z,7.53
2018-11-13T15:09:00.999Z,9.93
2018-11-13T15:11:29.404Z,7.75
2018-11-13T15:13:56.764Z,8.00
2018-11-13T15:16:24.412Z,7.08
2018-11-13T15:18:52.099Z,7.95
2018-11-13T15:21:19.433Z,15.10
2018-11-13T15:23:47.114Z,11.28
2018-11-13T15:26:14.837Z,17.00
2018-11-13T15:28:42.195Z,10.38
2018-11-13T15:31:10.289Z,7.65
2018-11-13T15:33:37.958Z,9.80
2018-11-13T15:36:05.638Z,9.80
2018-11-13T15:38:33.031Z,9.13
2018-11-13T15:41:00.748Z,10.18
2018-11-13T15:43:28.120Z,8.95
2018-11-13T15:45:55.981Z,9.93
2018-11-13T15:48:23.385Z,11.20
2018-11-13T15:50:50.766Z,15.70
2018-11-13T15:53:18.442Z,17.17
2018-11-13T15:55:46.081Z,11.35
2018-11-13T15:58:13.706Z,12.10
2018-11-13T16:00:42.271Z,11.12
2018-11-13T16:03:13.585Z,10.43
2018-11-13T16:05:46.477Z,9.60
2018-11-13T16:08:13.944Z,11.65
2018-11-13T16:10:41.640Z,8.00
2018-11-13T16:13:09.302Z,7.67
2018-11-13T16:15:36.693Z,8.28
2018-11-13T16:18:08.330Z,10.48
2018-11-13T16:20:36.029Z,9.73
2018-11-13T16:23:03.803Z,11.87
2018-11-13T16:25:31.187Z,8.90
2018-11-13T16:27:58.876Z,11.53
2018-11-13T16:30:28.209Z,10.75
2018-11-13T16:32:55.653Z,7.83
2018-11-13T16:35:24.045Z,11.70
2018-11-13T16:37:52.116Z,8.58
2018-11-13T16:40:21.130Z,10.08
2018-11-13T16:42:48.545Z,9.20
2018-11-13T16:45:17.095Z,15.70
2018-11-13T16:47:44.912Z,13.38
2018-11-13T16:50:15.781Z,10.00
2018-11-13T16:52:43.668Z,9.17
2018-11-13T16:55:15.637Z,9.13
2018-11-13T16:57:43.524Z,10.25
2018-11-13T17:00:11.001Z,9.68
2018-11-13T17:02:39.307Z,9.87
2018-11-13T17:05:09.206Z,10.20
2018-11-13T17:07:36.897Z,10.77
2018-11-13T17:10:05.963Z,11.70
2018-11-13T17:12:33.329Z,11.88
2018-11-13T17:15:00.901Z,10.40
2018-11-13T17:17:28.908Z,11.70
2018-11-13T17:19:56.229Z,10.70
2018-11-13T17:22:23.742Z,9.35
2018-11-13T17:24:51.228Z,12.13
2018-11-13T17:27:18.632Z,12.07
2018-11-13T17:29:46.050Z,10.13
2018-11-13T17:32:13.436Z,12.88
2018-11-13T17:34:40.860Z,13.50
2018-11-13T17:37:08.549Z,11.90
2018-11-13T17:39:36.025Z,12.73
2018-11-13T17:42:03.701Z,10.93
2018-11-13T17:44:31.376Z,14.47
2018-11-13T17:46:58.805Z,9.35
2018-11-13T17:49:26.229Z,13.43
2018-11-13T17:51:54.097Z,11.30
2018-11-13T17:54:23.602Z,10.55
2018-11-13T17:56:49.071Z,10.13
2018-11-13T17:59:16.781Z,10.03
2018-11-13T18:01:44.853Z,16.20
2018-11-13T18:04:12.513Z,11.28
2018-11-13T18:06:40.874Z,14.67
2018-11-13T18:09:10.140Z,9.38
2018-11-13T18:11:37.845Z,13.05
2018-11-13T18:14:06.172Z,9.10
2018-11-13T18:16:33.509Z,10.63
2018-11-13T18:19:00.978Z,25.48
2018-11-13T18:21:28.407Z,34.98
2018-11-13T18:23:55.919Z,11.57
2018-11-13T18:26:23.637Z,11.70
2018-11-13T18:28:51.076Z,9.40
2018-11-13T18:31:18.762Z,10.50
2018-11-13T18:33:46.139Z,10.13
2018-11-13T18:36:14.161Z,13.10
2018-11-13T18:38:41.809Z,11.45
2018-11-13T18:41:09.199Z,11.22
2018-11-13T18:43:36.868Z,10.23
2018-11-13T18:46:04.529Z,8.85
2018-11-13T18:48:32.072Z,10.47
2018-11-13T18:50:59.816Z,12.98
2018-11-13T18:53:27.299Z,11.45
2018-11-13T18:55:54.681Z,11.28
2018-11-13T18:58:22.619Z,10.30
2018-11-13T19:00:50.063Z,32.98
2018-11-13T19:03:17.651Z,27.48
2018-11-13T19:05:45.059Z,10.68
2018-11-13T19:08:12.512Z,11.25
2018-11-13T19:10:43.200Z,12.35
2018-11-13T19:13:13.361Z,11.38
2018-11-13T19:15:41.745Z,10.03
2018-11-13T19:18:09.660Z,11.05
2018-11-13T19:20:37.217Z,8.88
2018-11-13T19:23:05.580Z,12.47
2018-11-13T19:25:33.871Z,12.10
2018-11-13T19:28:01.713Z,11.55
2018-11-13T19:30:29.455Z,13.15
2018-11-13T19:32:56.810Z,11.22
2018-11-13T19:35:24.804Z,8.93
2018-11-13T19:37:52.105Z,10.45
2018-11-13T19:40:20.849Z,9.15
2018-11-13T19:42:49.048Z,12.60
2018-11-13T19:45:16.504Z,11.73
2018-11-13T19:47:43.862Z,9.13
2018-11-13T19:50:12.959Z,8.45
2018-11-13T19:52:40.553Z,11.68
2018-11-13T19:55:08.999Z,12.30
2018-11-13T19:57:36.661Z,11.18
2018-11-13T20:00:04.567Z,9.05
2018-11-13T20:02:31.992Z,10.43
2018-11-13T20:04:59.378Z,9.20
2018-11-13T20:07:27.004Z,13.22
2018-11-13T20:09:55.028Z,13.88
2018-11-13T20:12:23.249Z,14.53
2018-11-13T20:14:50.621Z,9.27
2018-11-13T20:17:18.268Z,12.13
2018-11-13T20:19:45.936Z,9.43
2018-11-13T20:22:13.365Z,14.63
2018-11-13T20:24:41.072Z,11.00
2018-11-13T20:27:09.224Z,10.70
2018-11-13T20:29:36.797Z,10.88
2018-11-13T20:32:04.548Z,10.85
2018-11-13T20:34:32.174Z,14.03
2018-11-13T20:36:59.902Z,9.55
2018-11-13T20:39:27.261Z,12.30
2018-11-13T20:41:54.925Z,13.88
2018-11-13T20:44:22.493Z,11.55
2018-11-13T20:46:50.114Z,10.98
2018-11-13T20:49:17.505Z,13.05
2018-11-13T20:51:44.947Z,14.33
2018-11-13T20:54:12.589Z,10.90
2018-11-13T20:56:40.025Z,13.98
2018-11-13T20:59:07.680Z,11.90
2018-11-13T21:01:35.069Z,12.05
2018-11-13T21:04:02.800Z,12.53
2018-11-13T21:06:30.183Z,9.78
2018-11-13T21:08:57.852Z,14.70
2018-11-13T21:11:25.290Z,8.88
2018-11-13T21:13:52.633Z,11.47
2018-11-13T21:16:20.490Z,11.97
2018-11-13T21:18:47.887Z,12.55
2018-11-13T21:21:15.618Z,11.35
2018-11-13T21:23:43.118Z,9.88
2018-11-13T21:26:11.101Z,10.50
2018-11-13T21:28:38.453Z,11.78
2018-11-13T21:31:05.834Z,13.62
2018-11-13T21:33:33.452Z,11.28
2018-11-13T21:36:00.805Z,11.03
2018-11-13T21:38:28.194Z,13.20
2018-11-13T21:40:55.562Z,13.18
2018-11-13T21:43:23.314Z,14.58
2018-11-13T21:45:51.018Z,11.12
2018-11-13T21:48:18.919Z,13.83
2018-11-13T21:50:46.266Z,12.13
2018-11-13T21:53:13.914Z,12.80
2018-11-13T21:55:41.311Z,12.25
2018-11-13T21:58:08.668Z,14.10
2018-11-13T22:00:36.032Z,15.48
2018-11-13T22:03:04.381Z,13.70
2018-11-13T22:05:32.753Z,13.30
2018-11-13T22:08:00.145Z,14.73
2018-11-13T22:10:27.513Z,14.03
2018-11-13T22:12:54.890Z,13.22
2018-11-13T22:15:23.609Z,21.57
2018-11-13T22:17:51.116Z,12.88
2018-11-13T22:20:19.472Z,16.27
2018-11-13T22:22:47.321Z,21.50
2018-11-13T22:25:16.177Z,12.55
2018-11-13T22:27:44.663Z,16.07
2018-11-13T22:30:13.924Z,16.65
2018-11-13T22:32:41.546Z,13.20
2018-11-13T22:35:10.401Z,13.88
2018-11-13T22:37:38.405Z,16.70
2018-11-13T22:40:07.419Z,14.13
2018-11-13T22:42:34.854Z,14.80
2018-11-13T22:45:02.272Z,14.68
2018-11-13T22:47:29.675Z,16.48
2018-11-13T22:49:57.606Z,17.85
2018-11-13T22:52:25.086Z,13.88
2018-11-13T22:54:52.461Z,14.07
2018-11-13T22:57:19.859Z,15.20
2018-11-13T22:59:47.634Z,14.45
2018-11-13T23:02:17.185Z,16.17
2018-11-13T23:04:44.498Z,15.55
2018-11-13T23:07:11.860Z,18.10
2018-11-13T23:09:39.232Z,15.63
2018-11-13T23:12:06.667Z,13.85
2018-11-13T23:14:34.061Z,13.58
2018-11-13T23:17:01.454Z,20.73
2018-11-13T23:19:29.133Z,16.42
2018-11-13T23:21:56.476Z,18.47
2018-11-13T23:24:23.906Z,17.30
2018-11-13T23:26:51.972Z,16.23
2018-11-13T23:29:19.383Z,14.78
2018-11-13T23:31:46.763Z,19.87
2018-11-13T23:34:14.462Z,16.17
2018-11-13T23:36:41.831Z,17.20
2018-11-13T23:39:09.561Z,14.15
2018-11-13T23:41:36.986Z,16.67
2018-11-13T23:44:04.664Z,18.87
2018-11-13T23:46:32.201Z,16.70
2018-11-13T23:48:59.912Z,13.55
2018-11-13T23:51:27.277Z,16.40
2018-11-13T23:53:54.757Z,15.40
2018-11-13T23:56:22.410Z,19.52
2018-11-13T23:58:50.053Z,17.62
